Cleveland, Ohio
Traffic Map
Current Weather Conditions
Cleveland, Ohio
Few Clouds
Few Clouds
78°
Feels Like: 80°
Wind Chill: 78° Ceiling: Unl
Heat Index: 80° Visibility: 10mi
Dew Point: 67° Wind: 9mph
Humidity: 68% Direction: 110° (ESE)
Pressure: 29.94in Gusts: 0mph
Raw Report DataKBKL 300153Z 11008KT 10SM FEW120 26/19 A2994 RMK AO2 SLP134 T02560194
Traffic Incident Summary
Active as of:
Severity:
Category:
InformationThere was an issue retrieving the traffic information for this location. Please try a different location or try again shortly.
Advertisements
Track Severe Weather on mobile